Bancroft, Idaho
Current Conditions -  °F | °C
As of 11:53 AM on Monday 20 Oct 2014 (Local Time) from KPIH Reporting Station
Scattered Clouds Scattered Clouds  
Wind Chill: 64°   Ceiling: Unl
Heat Index: 64°   Visibility: 10mi
Dew Point: 38°   Wind: 5mph
Humidity: 38%   Direction: 20°NNE
Pressure: 30.02"   Gusts: NA
Location:  42.72°N, 111.89°W
Report Text: KPIH 201753Z 02004KT 10SM SCT120 18/03 A3002 RMK AO2 SLP148 T01780033 10178 21006 58005
Loading
Personal Weather Stations






























Interactive Weather Map
Tropical Storm Tracking
New forecast layout! Learn more

10-Day Weather Forecast

Advertisements
Track Severe Weather on mobile